Time;durP1;ratioP1;P1;durP2;ratioP2;P2;SDS_P1;SDS_P2;PMS_P1;PMS_P2;Temp;Humidity;BMP_temperature;BMP_pressure;BME280_temperature;BME280_humidity;BME280_pressure;Samples;Min_cycle;Max_cycle;Signal;HPM_P1;HPM_P2
2022/03/26 00:00:46;;;;;;;38.08;16.38;;;;;;;8.07;55.31;103067.94;5080572;28;20028;-87
2022/03/26 00:03:16;;;;;;;36.17;16.45;;;;;;;8.04;55.38;103075.78;5075924;28;20051;-87
2022/03/26 00:05:43;;;;;;;41.60;18.33;;;;;;;7.98;55.68;103063.31;5076307;28;20058;-86
2022/03/26 00:08:09;;;;;;;37.10;16.83;;;;;;;7.98;54.98;103070.34;5076122;28;20052;-87
2022/03/26 00:10:36;;;;;;;33.80;16.48;;;;;;;7.91;56.21;103065.75;5076542;28;20028;-86
2022/03/26 00:13:03;;;;;;;32.60;17.37;;;;;;;7.87;56.41;103072.72;5037762;28;1101660;-87
2022/03/26 00:15:28;;;;;;;33.00;17.02;;;;;;;7.81;56.83;103056.72;5076815;28;20285;-86
2022/03/26 00:17:54;;;;;;;30.40;17.77;;;;;;;7.82;55.88;103071.72;5060878;28;20108;-87
2022/03/26 00:20:20;;;;;;;33.35;17.52;;;;;;;7.77;56.17;103068.06;5060764;28;20039;-86
2022/03/26 00:22:46;;;;;;;45.92;17.67;;;;;;;7.72;57.44;103062.69;5044030;28;20032;-87
2022/03/26 00:25:14;;;;;;;37.10;19.13;;;;;;;7.67;57.40;103063.41;5043940;28;20023;-86
2022/03/26 00:27:41;;;;;;;35.35;18.00;;;;;;;7.60;56.62;103057.09;5059020;28;20040;-87
2022/03/26 00:30:07;;;;;;;36.03;18.73;;;;;;;7.63;57.20;103065.06;5059772;28;20032;-87
2022/03/26 00:32:33;;;;;;;32.92;15.77;;;;;;;7.55;56.90;103061.34;5076461;28;20471;-87
2022/03/26 00:34:59;;;;;;;35.38;19.17;;;;;;;7.51;57.75;103063.00;5076736;28;20032;-86
2022/03/26 00:37:25;;;;;;;36.95;16.73;;;;;;;7.49;57.85;103066.44;5059847;28;20020;-86
2022/03/26 00:39:51;;;;;;;39.72;16.92;;;;;;;7.46;57.88;103066.38;5059847;28;20042;-86
2022/03/26 00:42:16;;;;;;;31.42;17.55;;;;;;;7.42;58.25;103068.03;5060809;28;20383;-87
2022/03/26 00:44:42;;;;;;;39.58;17.35;;;;;;;7.39;58.05;103067.94;5059437;28;20067;-86
2022/03/26 00:47:08;;;;;;;37.40;16.98;;;;;;;7.36;57.86;103062.59;5094453;28;20032;-87
2022/03/26 00:49:34;;;;;;;34.40;16.75;;;;;;;7.28;58.00;103056.22;5093056;28;20031;-86
2022/03/26 00:52:00;;;;;;;35.08;16.77;;;;;;;7.22;59.14;103051.69;5076556;28;20032;-86
2022/03/26 00:54:26;;;;;;;34.85;17.42;;;;;;;7.22;58.03;103059.59;5076340;28;20383;-87
2022/03/26 00:56:51;;;;;;;39.67;18.38;;;;;;;7.18;58.44;103054.19;5076056;28;20043;-87
2022/03/26 00:59:17;;;;;;;32.72;16.65;;;;;;;7.16;58.13;103061.16;5059657;28;20036;-86
2022/03/26 01:01:43;;;;;;;32.97;16.35;;;;;;;7.07;58.78;103045.97;5076320;28;20036;-86
2022/03/26 01:04:09;;;;;;;33.00;16.77;;;;;;;7.08;59.06;103059.22;5076335;28;20020;-86
2022/03/26 01:06:34;;;;;;;32.80;17.17;;;;;;;7.00;59.36;103052.84;5075948;28;20084;-86
2022/03/26 01:09:00;;;;;;;33.63;17.13;;;;;;;6.96;58.95;103053.59;5092636;28;20032;-86
2022/03/26 01:11:26;;;;;;;30.33;15.88;;;;;;;6.96;58.29;103052.69;5075280;28;20071;-87
2022/03/26 01:13:55;;;;;;;30.45;17.08;;;;;;;6.84;59.64;103037.44;5059236;28;20403;-86
2022/03/26 01:16:25;;;;;;;35.53;16.27;;;;;;;6.82;59.98;103047.91;5056825;28;20048;-86
2022/03/26 01:18:53;;;;;;;35.22;17.02;;;;;;;6.79;59.13;103052.22;5072834;28;20078;-86
2022/03/26 01:21:19;;;;;;;39.90;18.45;;;;;;;6.78;60.29;103051.31;5039198;28;20025;-86
2022/03/26 01:23:46;;;;;;;41.03;17.05;;;;;;;6.75;60.26;103047.69;5072022;28;20092;-87
2022/03/26 01:26:16;;;;;;;35.38;16.80;;;;;;;6.76;60.33;103054.75;5038468;28;20044;-86
2022/03/26 01:28:43;;;;;;;36.92;17.50;;;;;;;6.71;60.50;103048.47;5038480;28;20060;-86
2022/03/26 01:31:08;;;;;;;32.88;17.50;;;;;;;6.72;61.72;103052.88;5055305;28;20029;-86
2022/03/26 01:33:34;;;;;;;34.33;16.92;;;;;;;6.67;61.09;103058.88;5055025;28;20454;-87
2022/03/26 01:35:59;;;;;;;32.88;16.55;;;;;;;6.68;61.28;103058.06;5073064;28;20036;-87
2022/03/26 01:38:25;;;;;;;32.22;17.23;;;;;;;6.68;61.38;103058.06;5021848;28;20028;-87
2022/03/26 01:40:51;;;;;;;40.47;17.48;;;;;;;6.66;61.33;103056.22;5071936;28;20047;-86
2022/03/26 01:43:16;;;;;;;37.63;17.20;;;;;;;6.65;61.86;103054.44;5069272;28;20103;-86
2022/03/26 01:45:42;;;;;;;38.35;16.00;;;;;;;6.60;61.39;103045.50;5075042;28;20131;-87
2022/03/26 01:48:08;;;;;;;35.83;15.75;;;;;;;6.61;62.04;103060.47;5058300;28;20112;-86
2022/03/26 01:50:33;;;;;;;37.40;16.75;;;;;;;6.61;61.88;103064.00;5091999;28;20054;-86
2022/03/26 01:52:59;;;;;;;37.58;16.48;;;;;;;6.58;62.21;103055.13;5058397;28;20036;-86
2022/03/26 01:55:26;;;;;;;29.52;16.30;;;;;;;6.57;62.48;103062.09;5091366;28;20047;-86
2022/03/26 01:57:53;;;;;;;38.03;16.10;;;;;;;6.57;62.69;103058.56;5074247;28;20484;-87
2022/03/26 02:00:19;;;;;;;32.42;16.48;;;;;;;6.54;62.53;103055.84;5091680;28;20078;-87
2022/03/26 02:02:45;;;;;;;35.38;16.35;;;;;;;6.53;62.53;103048.78;5075200;28;20063;-86
2022/03/26 02:05:14;;;;;;;32.85;16.52;;;;;;;6.54;62.38;103053.22;5041750;28;20036;-86
2022/03/26 02:07:42;;;;;;;35.13;16.13;;;;;;;6.52;62.77;103055.81;5091753;28;20067;-86
2022/03/26 02:10:09;;;;;;;30.92;16.30;;;;;;;6.50;62.61;103062.75;5075193;28;20051;-87
2022/03/26 02:12:36;;;;;;;32.13;16.88;;;;;;;6.50;62.58;103056.59;5075149;28;20051;-86
2022/03/26 02:15:02;;;;;;;34.53;16.20;;;;;;;6.46;62.43;103061.78;5092883;28;20073;-86
2022/03/26 02:17:27;;;;;;;32.65;16.90;;;;;;;6.45;63.03;103061.72;5041740;28;20131;-86
2022/03/26 02:19:57;;;;;;;31.52;17.30;;;;;;;6.36;62.72;103050.94;5058377;28;20047;-86
2022/03/26 02:22:25;;;;;;;33.92;16.38;;;;;;;6.39;62.75;103056.28;5074665;28;20111;-86
2022/03/26 02:24:51;;;;;;;35.58;17.08;;;;;;;6.37;62.95;103061.50;5075045;28;20207;-86
2022/03/26 02:27:17;;;;;;;30.80;15.82;;;;;;;6.33;62.45;103059.63;5074318;28;20115;-86
2022/03/26 02:29:43;;;;;;;34.65;17.58;;;;;;;6.29;63.25;103055.09;5057741;28;20158;-86
2022/03/26 02:32:09;;;;;;;40.72;17.08;;;;;;;6.29;63.58;103062.13;5074599;28;20069;-86
2022/03/26 02:34:34;;;;;;;28.23;16.25;;;;;;;6.22;61.62;103054.00;5074580;28;20051;-86
2022/03/26 02:37:00;;;;;;;37.03;15.90;;;;;;;6.22;62.86;103047.84;5041213;28;20050;-86
2022/03/26 02:39:27;;;;;;;35.10;16.80;;;;;;;6.17;62.65;103055.59;5092898;28;20024;-86
2022/03/26 02:41:52;;;;;;;43.15;16.63;;;;;;;6.13;63.15;103052.81;5040798;28;20040;-86
2022/03/26 02:44:18;;;;;;;49.72;19.52;;;;;;;6.13;63.30;103058.09;5092130;28;20559;-86
2022/03/26 02:46:45;;;;;;;31.98;16.42;;;;;;;6.05;63.22;103049.94;5057541;28;20040;-86
2022/03/26 02:49:15;;;;;;;30.77;15.57;;;;;;;6.04;62.82;103063.97;5057579;28;20043;-86
2022/03/26 02:51:41;;;;;;;27.67;15.93;;;;;;;5.99;63.22;103060.28;5077878;28;20105;-86
2022/03/26 02:54:18;;;;;;;37.65;17.63;;;;;;;5.98;63.75;103058.47;5077932;28;20036;-86
2022/03/26 02:56:51;;;;;;;34.60;17.50;;;;;;;5.97;63.33;103059.34;5077956;28;20463;-86
2022/03/26 02:59:18;;;;;;;33.75;17.20;;;;;;;5.94;63.38;103056.63;5061275;28;20384;-86
2022/03/26 03:01:44;;;;;;;37.20;15.93;;;;;;;5.89;63.63;103052.91;5077904;28;20466;-86
2022/03/26 03:04:10;;;;;;;34.35;16.55;;;;;;;5.85;63.92;103053.63;5077794;28;20110;-86
2022/03/26 03:06:36;;;;;;;31.73;16.05;;;;;;;5.81;63.69;103056.19;5077659;28;20421;-86
2022/03/26 03:09:02;;;;;;;35.08;16.58;;;;;;;5.77;64.30;103049.03;5060906;28;20068;-86
2022/03/26 03:11:28;;;;;;;29.67;16.27;;;;;;;5.72;63.85;103053.22;5077709;28;20019;-86
2022/03/26 03:13:54;;;;;;;34.05;16.70;;;;;;;5.69;64.61;103047.00;5060908;28;20060;-86
2022/03/26 03:16:19;;;;;;;37.58;16.33;;;;;;;5.62;64.41;103058.13;5042706;28;20390;-86
2022/03/26 03:18:45;;;;;;;35.05;15.43;;;;;;;5.56;64.70;103053.53;5057923;28;20036;-86
2022/03/26 03:21:10;;;;;;;34.63;16.30;;;;;;;5.53;64.71;103056.06;5057898;28;20429;-86
2022/03/26 03:23:36;;;;;;;32.28;16.75;;;;;;;5.50;64.36;103056.84;5057725;28;20253;-86
2022/03/26 03:26:01;;;;;;;36.88;16.13;;;;;;;5.49;65.58;103060.34;5057293;28;20036;-87
2022/03/26 03:28:27;;;;;;;33.65;16.63;;;;;;;5.40;64.80;103060.00;5073879;28;20062;-86
2022/03/26 03:30:53;;;;;;;30.08;16.10;;;;;;;5.45;65.14;103070.69;5057202;28;20040;-86
2022/03/26 03:33:19;;;;;;;33.17;16.92;;;;;;;5.38;65.25;103064.31;5056553;28;20082;-86
2022/03/26 03:35:45;;;;;;;39.72;18.65;;;;;;;5.38;65.35;103066.94;5080790;28;20024;-86
2022/03/26 03:38:10;;;;;;;30.52;15.82;;;;;;;5.36;64.95;103068.63;5041670;28;20482;-86
2022/03/26 03:40:36;;;;;;;32.50;16.98;;;;;;;5.33;65.53;103069.41;5075227;28;20047;-86
2022/03/26 03:43:02;;;;;;;36.47;16.88;;;;;;;5.32;65.84;103064.13;5056617;28;20028;-86
2022/03/26 03:45:28;;;;;;;33.58;16.77;;;;;;;5.21;65.76;103047.94;5073584;28;20115;-86
2022/03/26 03:47:53;;;;;;;36.22;16.98;;;;;;;5.29;65.68;103069.22;5040111;28;20035;-86
2022/03/26 03:50:19;;;;;;;32.72;17.02;;;;;;;5.26;66.03;103063.88;5056907;28;20402;-86
2022/03/26 03:52:45;;;;;;;33.55;17.17;;;;;;;5.22;66.05;103065.53;5074542;28;20473;-86
2022/03/26 03:55:11;;;;;;;37.50;17.48;;;;;;;5.21;66.18;103070.69;5040391;28;20040;-86
2022/03/26 03:57:41;;;;;;;41.53;16.60;;;;;;;5.17;66.15;103075.84;5074592;28;20035;-86
2022/03/26 04:00:07;;;;;;;32.45;18.10;;;;;;;5.15;66.46;103064.41;5056762;28;20060;-86
2022/03/26 04:02:38;;;;;;;37.10;17.15;;;;;;;5.16;66.02;103079.31;5055950;28;20032;-86
2022/03/26 04:05:04;;;;;;;35.13;17.77;;;;;;;5.15;67.31;103071.38;5074605;28;20127;-86
2022/03/26 04:07:29;;;;;;;33.10;16.30;;;;;;;5.13;67.02;103073.06;5073224;28;20052;-86
2022/03/26 04:09:55;;;;;;;41.03;17.08;;;;;;;5.12;66.84;103066.03;5056499;28;20076;-86
2022/03/26 04:12:20;;;;;;;36.47;18.05;;;;;;;5.13;67.01;103067.81;5072965;28;20134;-86
2022/03/26 04:14:46;;;;;;;38.60;17.40;;;;;;;5.06;67.08;103069.31;5058780;28;20037;-86
2022/03/26 04:17:12;;;;;;;42.83;18.05;;;;;;;5.05;67.09;103072.78;5022699;28;20020;-86
2022/03/26 04:19:39;;;;;;;33.05;16.98;;;;;;;5.02;66.97;103066.50;5039904;28;20452;-86
2022/03/26 04:22:08;;;;;;;34.33;16.98;;;;;;;5.02;67.43;103071.75;5039863;28;20090;-86
2022/03/26 04:24:36;;;;;;;31.85;17.55;;;;;;;4.93;67.42;103064.44;5074099;28;20035;-86
2022/03/26 04:27:03;;;;;;;33.50;17.00;;;;;;;4.89;66.39;103065.16;5056198;28;20098;-86
2022/03/26 04:29:29;;;;;;;41.85;18.42;;;;;;;4.89;68.11;103070.41;5056275;28;20123;-86
2022/03/26 04:31:54;;;;;;;33.92;17.17;;;;;;;4.85;67.57;103077.28;5039622;28;20043;-86
2022/03/26 04:34:20;;;;;;;34.67;17.05;;;;;;;4.86;67.19;103083.44;5074064;28;20440;-86
2022/03/26 04:36:45;;;;;;;35.25;16.00;;;;;;;4.81;67.19;103071.88;5039460;28;20040;-86
2022/03/26 04:39:11;;;;;;;37.47;17.90;;;;;;;4.81;67.75;103080.63;5039469;28;20137;-86
2022/03/26 04:41:36;;;;;;;40.55;16.27;;;;;;;4.80;67.67;103075.31;5056531;28;20406;-85
2022/03/26 04:44:03;;;;;;;32.92;17.23;;;;;;;4.76;68.11;103069.06;5075704;28;20484;-86
2022/03/26 04:46:29;;;;;;;33.55;16.55;;;;;;;4.71;68.08;103065.38;5059124;28;20044;-86
2022/03/26 04:48:54;;;;;;;40.55;17.50;;;;;;;4.72;67.55;103072.41;5075803;28;20062;-86
2022/03/26 04:51:20;;;;;;;40.22;17.13;;;;;;;4.70;67.91;103071.47;5075818;28;20085;-86
2022/03/26 04:53:45;;;;;;;36.65;17.67;;;;;;;4.68;68.45;103071.41;5093683;28;20035;-86
2022/03/26 04:56:11;;;;;;;41.33;17.75;;;;;;;4.65;68.17;103071.28;5060508;28;20036;-86
2022/03/26 04:58:37;;;;;;;35.75;18.30;;;;;;;4.66;68.55;103082.69;5075155;28;20147;-87
2022/03/26 05:01:02;;;;;;;40.22;17.33;;;;;;;4.65;68.84;103076.53;5075423;28;20054;-86
2022/03/26 05:03:28;;;;;;;38.08;18.02;;;;;;;4.63;69.07;103075.59;5059282;28;20380;-86
2022/03/26 05:05:54;;;;;;;36.33;18.35;;;;;;;4.61;68.48;103081.63;5092652;28;20051;-86
2022/03/26 05:08:19;;;;;;;35.65;18.17;;;;;;;4.57;68.56;103071.81;5093514;28;20131;-86
2022/03/26 05:10:45;;;;;;;49.72;18.85;;;;;;;4.58;68.46;103079.75;5075381;28;20113;-86
2022/03/26 05:13:11;;;;;;;32.55;17.10;;;;;;;4.54;68.70;103080.47;5058246;28;20051;-86
2022/03/26 05:15:37;;;;;;;36.03;18.10;;;;;;;4.52;68.29;103083.06;5093547;28;20387;-86
2022/03/26 05:18:03;;;;;;;39.78;18.23;;;;;;;4.50;68.80;103084.72;5058893;28;20043;-86
2022/03/26 05:20:29;;;;;;;38.80;18.00;;;;;;;4.51;69.55;103088.22;5058973;28;20031;-86
2022/03/26 05:22:55;;;;;;;34.85;18.75;;;;;;;4.48;69.41;103082.88;5092107;28;20043;-86
2022/03/26 05:25:20;;;;;;;41.40;19.15;;;;;;;4.47;69.61;103083.69;5075071;28;20044;-86
2022/03/26 05:27:51;;;;;;;43.47;20.20;;;;;;;4.47;70.07;103089.81;5093192;28;20036;-86
2022/03/26 05:30:18;;;;;;;39.28;18.58;;;;;;;4.47;69.65;103099.44;5093705;28;20031;-86
2022/03/26 05:32:44;;;;;;;38.45;18.80;;;;;;;4.48;70.17;103103.88;5093181;28;20024;-86
2022/03/26 05:35:13;;;;;;;39.78;20.08;;;;;;;4.49;70.63;103098.66;5075268;28;20117;-86
2022/03/26 05:37:44;;;;;;;37.15;18.27;;;;;;;4.48;70.40;103090.75;5074939;28;20082;-86
2022/03/26 05:40:11;;;;;;;34.25;18.58;;;;;;;4.53;70.95;103107.56;5077000;28;20032;-86
2022/03/26 05:42:38;;;;;;;41.80;19.92;;;;;;;4.51;70.32;103110.09;5068673;28;20051;-86
2022/03/26 05:45:05;;;;;;;44.67;20.67;;;;;;;4.53;69.83;103110.19;5075251;28;20029;-86
2022/03/26 05:47:31;;;;;;;45.88;20.02;;;;;;;4.53;69.92;103116.31;5039119;28;20040;-87
2022/03/26 05:49:57;;;;;;;43.25;19.88;;;;;;;4.56;70.35;103115.53;5060630;28;20032;-87
2022/03/26 05:52:23;;;;;;;43.63;19.63;;;;;;;4.58;70.24;103110.38;5043769;28;20101;-88
2022/03/26 05:54:48;;;;;;;39.15;19.65;;;;;;;4.61;69.92;103105.22;5050605;28;20036;-87
2022/03/26 05:57:14;;;;;;;36.22;19.10;;;;;;;4.63;69.94;103112.31;5057987;28;20122;-87
2022/03/26 05:59:39;;;;;;;38.95;19.15;;;;;;;4.64;70.07;103106.22;5074681;28;20486;-87
2022/03/26 06:02:05;;;;;;;38.72;19.77;;;;;;;4.69;70.26;103116.91;5075065;28;20036;-87
2022/03/26 06:04:30;;;;;;;48.65;20.02;;;;;;;4.73;69.83;103116.22;5058237;28;20085;-87
2022/03/26 06:06:59;;;;;;;37.45;19.83;;;;;;;4.77;69.79;103119.81;5074823;28;20387;-87
2022/03/26 06:09:24;;;;;;;36.17;18.33;;;;;;;4.83;69.19;103117.47;5075392;28;20391;-87
2022/03/26 06:11:50;;;;;;;44.35;19.15;;;;;;;4.85;69.83;103121.03;5041348;28;20024;-88
2022/03/26 06:14:17;;;;;;;38.25;19.02;;;;;;;4.87;69.19;103114.09;5074816;28;20056;-87
2022/03/26 06:16:45;;;;;;;37.95;19.55;;;;;;;4.90;69.16;103112.50;5076305;28;20066;-86
2022/03/26 06:19:12;;;;;;;37.33;19.23;;;;;;;4.94;69.94;103119.63;5092666;28;20438;-87
2022/03/26 06:21:38;;;;;;;40.38;20.60;;;;;;;5.00;69.26;103126.88;5074717;28;20024;-87
2022/03/26 06:24:04;;;;;;;36.60;18.15;;;;;;;5.08;69.41;103135.03;5074631;28;20101;-87
2022/03/26 06:26:30;;;;;;;40.08;18.98;;;;;;;5.12;69.51;103137.84;5078280;28;20031;-84
2022/03/26 06:28:56;;;;;;;40.30;20.52;;;;;;;5.18;69.50;103137.16;5077945;28;20036;-86
2022/03/26 06:31:22;;;;;;;36.90;20.23;;;;;;;5.25;69.10;103128.66;5078338;28;20039;-86
2022/03/26 06:33:48;;;;;;;35.80;19.40;;;;;;;5.30;69.23;103137.59;5095279;28;20035;-86
2022/03/26 06:36:13;;;;;;;48.10;20.65;;;;;;;5.38;69.05;103143.13;5078008;28;20040;-85
2022/03/26 06:38:41;;;;;;;43.67;21.50;;;;;;;5.45;68.75;103139.00;5071910;28;20040;-86
2022/03/26 06:41:11;;;;;;;43.85;20.40;;;;;;;5.51;68.88;103137.47;5078260;28;20399;-86
2022/03/26 06:43:38;;;;;;;45.97;19.35;;;;;;;5.60;68.60;103150.06;5060002;28;20041;-85
2022/03/26 06:46:04;;;;;;;45.13;21.67;;;;;;;5.67;68.43;103138.94;5057864;28;20032;-86
2022/03/26 06:48:30;;;;;;;47.88;21.38;;;;;;;5.73;68.31;103141.75;5058207;28;20503;-86
2022/03/26 06:50:57;;;;;;;45.40;20.90;;;;;;;5.84;68.91;103143.91;5057828;28;20090;-86
2022/03/26 06:53:22;;;;;;;47.05;21.38;;;;;;;5.92;68.45;103135.41;5043569;28;20063;-86
2022/03/26 06:55:48;;;;;;;38.83;20.63;;;;;;;5.98;67.98;103138.31;5077089;28;20071;-86
2022/03/26 06:58:14;;;;;;;42.42;20.88;;;;;;;6.08;67.63;103134.22;5093953;28;20035;-86
2022/03/26 07:00:39;;;;;;;46.25;21.02;;;;;;;6.18;67.40;103138.97;5074993;28;20135;-86
2022/03/26 07:03:05;;;;;;;42.88;20.25;;;;;;;6.31;67.22;103149.91;5076192;28;20128;-86
2022/03/26 07:05:30;;;;;;;41.97;20.88;;;;;;;6.33;66.86;103135.03;5060006;28;20107;-86
2022/03/26 07:07:57;;;;;;;43.70;21.73;;;;;;;6.51;66.86;103147.91;5089707;28;20037;-86
2022/03/26 07:10:23;;;;;;;43.35;21.45;;;;;;;6.59;66.57;103144.66;5059194;28;20032;-86
2022/03/26 07:12:49;;;;;;;41.58;19.55;;;;;;;6.68;66.30;103138.78;5049768;28;20412;-86
2022/03/26 07:15:15;;;;;;;56.83;22.50;;;;;;;6.78;65.76;103143.50;5092224;28;20024;-86
2022/03/26 07:17:43;;;;;;;50.72;21.48;;;;;;;6.91;65.52;103146.50;5075920;28;20059;-86
2022/03/26 07:20:10;;;;;;;49.60;21.25;;;;;;;7.02;64.81;103152.97;5076474;28;20509;-87
2022/03/26 07:22:35;;;;;;;44.63;20.38;;;;;;;7.12;65.37;103149.75;5073370;28;20083;-86
2022/03/26 07:25:04;;;;;;;42.45;20.52;;;;;;;7.22;64.74;103145.66;5068112;28;20041;-86
2022/03/26 07:27:34;;;;;;;43.05;20.90;;;;;;;7.35;64.64;103147.81;5059339;28;20093;-87
2022/03/26 07:30:00;;;;;;;45.55;20.70;;;;;;;7.50;63.90;103148.22;5085046;28;20113;-86
2022/03/26 07:32:27;;;;;;;38.13;20.83;;;;;;;7.61;63.84;103148.50;5093553;28;20476;-86
2022/03/26 07:34:54;;;;;;;46.00;21.88;;;;;;;7.75;63.63;103152.44;5060231;28;20043;-87
2022/03/26 07:37:21;;;;;;;42.20;20.80;;;;;;;7.89;63.07;103149.28;5090579;28;20172;-87
2022/03/26 07:39:47;;;;;;;38.88;20.45;;;;;;;8.02;63.33;103154.00;5077468;28;20044;-87
2022/03/26 07:42:13;;;;;;;43.15;20.17;;;;;;;8.13;63.10;103152.53;5095123;28;20136;-86
2022/03/26 07:44:38;;;;;;;46.75;22.00;;;;;;;8.29;62.56;103156.44;5082891;28;20039;-86
2022/03/26 07:47:04;;;;;;;47.63;20.50;;;;;;;8.44;62.60;103158.59;5058651;28;20036;-86
2022/03/26 07:49:31;;;;;;;44.67;22.55;;;;;;;8.56;62.32;103150.97;5070337;28;20039;-86
2022/03/26 07:51:56;;;;;;;40.15;19.77;;;;;;;8.70;60.83;103155.69;5047933;28;20024;-87
2022/03/26 07:54:22;;;;;;;44.60;20.85;;;;;;;8.82;61.52;103155.94;5080033;28;20188;-87
2022/03/26 07:56:48;;;;;;;38.78;18.65;;;;;;;8.97;61.08;103168.63;5072214;28;20036;-87
2022/03/26 07:59:14;;;;;;;40.30;19.77;;;;;;;9.09;60.31;103157.44;5078512;28;20379;-86
2022/03/26 08:01:39;;;;;;;40.03;20.20;;;;;;;9.20;59.81;103147.97;5068408;28;20093;-87
2022/03/26 08:04:04;;;;;;;45.13;20.42;;;;;;;9.29;58.83;103150.78;5083032;28;20102;-87
2022/03/26 08:06:30;;;;;;;44.10;20.48;;;;;;;9.40;59.44;103153.69;5086035;28;20125;-87
2022/03/26 08:08:55;;;;;;;43.33;19.90;;;;;;;9.60;58.47;103167.28;5076996;28;20174;-89
2022/03/26 08:11:21;;;;;;;41.78;19.88;;;;;;;9.74;58.57;103164.88;5080674;28;20064;-89
2022/03/26 08:13:47;;;;;;;40.42;20.42;;;;;;;9.87;57.68;103174.84;5077737;28;20059;-90
2022/03/26 08:16:12;;;;;;;50.70;20.65;;;;;;;9.99;57.40;103164.50;5061886;28;20047;-89
2022/03/26 08:18:38;;;;;;;42.53;19.95;;;;;;;10.12;57.23;103165.59;5087185;28;20040;-89
2022/03/26 08:21:05;;;;;;;35.40;19.80;;;;;;;10.31;57.36;103170.38;5092871;28;20024;-89
2022/03/26 08:23:31;;;;;;;40.47;20.67;;;;;;;10.46;56.75;103172.38;5091200;28;20460;-89
2022/03/26 08:28:41;;;;;;;38.97;18.90;;;;;;;10.70;55.25;103168.31;5081343;28;20032;-89
2022/03/26 08:31:10;;;;;;;41.90;20.38;;;;;;;10.83;55.53;103178.25;5073683;28;20028;-90
2022/03/26 08:33:37;;;;;;;43.28;22.13;;;;;;;11.02;55.40;103186.44;5067341;28;20028;-89
2022/03/26 08:36:03;;;;;;;43.17;19.55;;;;;;;11.15;55.52;103188.38;5073428;28;20120;-90
2022/03/26 08:38:28;;;;;;;46.85;21.25;;;;;;;11.25;54.88;103177.03;5077890;28;20057;-89
2022/03/26 08:40:54;;;;;;;40.65;20.13;;;;;;;11.45;54.36;103179.94;5079999;28;20024;-89
2022/03/26 08:43:20;;;;;;;42.83;20.27;;;;;;;11.58;53.98;103180.97;5063985;28;20028;-89
2022/03/26 08:45:46;;;;;;;45.90;20.10;;;;;;;11.69;53.93;103181.94;5074088;28;20023;-90
2022/03/26 08:48:11;;;;;;;39.95;18.55;;;;;;;11.83;52.90;103184.75;5051637;28;20108;-89
2022/03/26 08:50:37;;;;;;;44.60;20.80;;;;;;;11.96;52.85;103178.72;5064601;28;20020;-89
2022/03/26 08:53:03;;;;;;;40.20;20.65;;;;;;;12.12;53.04;103185.09;5074982;28;20332;-89
2022/03/26 08:55:29;;;;;;;41.30;20.35;;;;;;;12.28;52.26;103191.41;5058166;28;20629;-89
2022/03/26 08:57:57;;;;;;;39.65;20.50;;;;;;;12.38;51.91;103179.97;5068164;28;20130;-88
2022/03/26 09:00:23;;;;;;;38.83;19.85;;;;;;;12.44;51.10;103179.16;5084999;28;20399;-89
2022/03/26 09:02:48;;;;;;;41.85;19.98;;;;;;;12.57;51.38;103193.44;5058510;28;20028;-87
2022/03/26 09:05:15;;;;;;;47.97;20.42;;;;;;;12.67;50.98;103189.94;5058585;28;20131;-88
2022/03/26 09:07:41;;;;;;;45.83;20.08;;;;;;;12.72;50.83;103180.25;5075585;28;20097;-89
2022/03/26 09:10:08;;;;;;;40.85;19.85;;;;;;;12.84;49.73;103190.94;5075194;28;20403;-89
2022/03/26 09:12:34;;;;;;;37.78;19.23;;;;;;;12.93;49.95;103179.47;5058462;28;20119;-88
2022/03/26 09:15:00;;;;;;;43.88;18.85;;;;;;;13.07;49.25;103188.41;5025919;28;20059;-89
2022/03/26 09:17:26;;;;;;;35.97;18.13;;;;;;;13.19;49.27;103181.38;5049555;28;20032;-90
2022/03/26 09:19:51;;;;;;;40.33;18.83;;;;;;;13.39;47.80;103186.81;5075896;28;20122;-89
2022/03/26 09:22:17;;;;;;;36.03;18.55;;;;;;;13.42;48.38;103182.38;5075788;28;20055;-89
2022/03/26 09:24:43;;;;;;;42.50;19.25;;;;;;;13.57;48.16;103181.56;5058520;28;20032;-89
2022/03/26 09:27:10;;;;;;;37.40;19.00;;;;;;;13.81;48.04;103194.06;5058546;28;20392;-89
2022/03/26 09:29:36;;;;;;;36.95;18.55;;;;;;;13.97;47.60;103181.63;5058405;28;20074;-89
2022/03/26 09:32:02;;;;;;;38.20;18.90;;;;;;;14.18;46.88;103184.31;5057655;28;20031;-89
2022/03/26 09:34:27;;;;;;;34.83;18.73;;;;;;;14.27;47.01;103188.78;5075094;28;20459;-89
2022/03/26 09:36:55;;;;;;;42.83;18.35;;;;;;;14.42;46.03;103187.91;5061633;28;20028;-88
2022/03/26 09:39:21;;;;;;;37.38;19.05;;;;;;;14.50;46.33;103178.09;5061463;28;20036;-89
2022/03/26 09:41:47;;;;;;;38.40;18.45;;;;;;;14.67;46.09;103178.13;5075278;28;20103;-89
2022/03/26 09:44:14;;;;;;;35.22;18.05;;;;;;;14.81;45.66;103176.31;5064644;28;20127;-89
2022/03/26 09:46:39;;;;;;;39.00;18.38;;;;;;;14.93;44.99;103178.06;5092698;28;20071;-89
2022/03/26 09:49:06;;;;;;;32.13;16.92;;;;;;;15.06;45.10;103173.59;5082380;28;20047;-88
2022/03/26 09:51:32;;;;;;;34.92;17.83;;;;;;;15.29;44.69;103177.94;5094979;28;20097;-88
2022/03/26 09:53:58;;;;;;;33.88;17.38;;;;;;;15.37;43.96;103178.78;5078676;28;20055;-84
2022/03/26 09:56:34;;;;;;;34.47;16.88;;;;;;;15.52;43.02;103180.50;5057090;28;20127;-85
2022/03/26 09:59:00;;;;;;;37.88;16.00;;;;;;;15.64;43.11;103175.97;5098195;28;20028;-83
2022/03/26 10:01:26;;;;;;;36.80;14.93;;;;;;;15.74;41.65;103181.31;5091478;28;20382;-84
2022/03/26 10:04:12;;;;;;;35.03;15.75;;;;;;;15.86;42.63;103174.09;5073514;28;20043;-84
2022/03/26 10:06:48;;;;;;;31.95;14.80;;;;;;;15.99;41.58;103182.91;5066045;28;20043;-84
2022/03/26 10:09:27;;;;;;;27.80;14.50;;;;;;;16.07;41.03;103166.81;5079141;28;20055;-84
2022/03/26 10:12:10;;;;;;;36.10;15.88;;;;;;;16.22;41.38;103179.16;5092926;28;20467;-84
2022/03/26 10:14:59;;;;;;;35.45;16.75;;;;;;;16.21;40.06;103164.91;5062740;28;20097;-83
2022/03/26 10:17:31;;;;;;;34.20;16.83;;;;;;;16.41;39.93;103177.22;5069329;28;20055;-86
2022/03/26 10:20:01;;;;;;;32.58;15.88;;;;;;;16.54;39.39;103171.75;5058255;28;20089;-84
2022/03/26 10:22:34;;;;;;;33.90;16.23;;;;;;;16.69;39.39;103165.38;5058460;28;20384;-83
2022/03/26 10:25:04;;;;;;;35.72;17.33;;;;;;;16.80;38.79;103161.72;5057982;28;20036;-84
2022/03/26 10:27:35;;;;;;;38.60;18.27;;;;;;;16.89;39.25;103162.50;5041123;28;20024;-83
2022/03/26 10:30:02;;;;;;;39.83;19.88;;;;;;;16.99;38.96;103157.94;5041004;28;20527;-84
2022/03/26 10:32:41;;;;;;;35.13;19.05;;;;;;;17.12;39.59;103153.31;5026935;28;20040;-89
2022/03/26 10:35:24;;;;;;;39.05;16.50;;;;;;;17.24;40.29;103157.63;5058046;28;20178;-88
2022/03/26 10:37:59;;;;;;;40.00;17.30;;;;;;;17.47;40.14;103165.34;5058225;28;20115;-89
2022/03/26 10:40:26;;;;;;;35.85;18.45;;;;;;;17.65;39.46;103161.53;5067231;28;20024;-89
2022/03/26 10:43:05;;;;;;;34.33;16.50;;;;;;;17.79;40.38;103159.53;5072518;28;20047;-88
2022/03/26 10:45:33;;;;;;;19.27;10.95;;;;;;;17.88;39.77;103155.84;5084386;28;20483;-88
2022/03/26 10:48:00;;;;;;;20.17;11.48;;;;;;;18.02;39.42;103151.16;5067974;28;20039;-89
2022/03/26 10:50:33;;;;;;;22.27;12.07;;;;;;;18.20;39.94;103148.19;5068851;28;20032;-89
2022/03/26 10:53:04;;;;;;;22.15;11.25;;;;;;;18.31;39.91;103149.78;5057669;28;20436;-89
2022/03/26 10:55:30;;;;;;;;;;;;;;;18.47;40.26;103152.16;5075627;28;20043;-89
2022/03/26 10:57:56;;;;;;;22.17;11.98;;;;;;;18.54;39.84;103139.50;5057693;28;20278;-88
2022/03/26 11:00:21;;;;;;;31.33;13.90;;;;;;;18.61;38.95;103145.66;5041393;28;20044;-89
2022/03/26 11:02:48;;;;;;;25.30;14.25;;;;;;;18.77;39.05;103143.56;5041128;28;20051;-89
2022/03/26 11:05:13;;;;;;;21.20;12.27;;;;;;;18.88;38.77;103142.44;5028658;28;20032;-88
2022/03/26 11:07:41;;;;;;;23.08;12.52;;;;;;;19.00;38.80;103138.63;5060375;28;20039;-89
2022/03/26 11:10:09;;;;;;;28.98;13.43;;;;;;;19.10;38.63;103126.78;5077356;28;20036;-86
2022/03/26 11:12:40;;;;;;;23.88;12.98;;;;;;;19.24;38.31;103139.06;5076759;28;20403;-84
2022/03/26 11:15:08;;;;;;;;;;;;;;;19.34;39.27;103149.56;5057260;28;20044;-86
2022/03/26 11:17:44;;;;;;;24.17;11.88;;;;;;;19.41;38.64;103126.13;5040724;28;19916;-88